sensor_id;sensor_type;location;lat;lon;timestamp;pressure;altitude;pressure_sealevel;temperature;humidity
44872;BME280;30602;51.060;17.226;2022-09-03T00:09:53;101888.02;;;13.74;63.57
44872;BME280;30602;51.060;17.226;2022-09-03T00:13:35;101889.37;;;13.64;64.44
44872;BME280;30602;51.060;17.226;2022-09-03T00:21:06;101880.67;;;13.38;65.52
44872;BME280;30602;51.060;17.226;2022-09-03T00:24:24;101877.07;;;13.21;66.31
44872;BME280;30602;51.060;17.226;2022-09-03T00:27:57;101873.11;;;13.02;67.32
44872;BME280;30602;51.060;17.226;2022-09-03T00:31:49;101873.64;;;12.87;68.19
44872;BME280;30602;51.060;17.226;2022-09-03T00:35:25;101873.48;;;12.74;68.94
44872;BME280;30602;51.060;17.226;2022-09-03T00:39:28;101872.13;;;12.49;69.98
44872;BME280;30602;51.060;17.226;2022-09-03T00:46:55;101870.65;;;12.08;72.24
44872;BME280;30602;51.060;17.226;2022-09-03T01:05:23;101881.46;;;11.48;76.18
44872;BME280;30602;51.060;17.226;2022-09-03T01:12:55;101888.80;;;11.17;77.65
44872;BME280;30602;51.060;17.226;2022-09-03T01:16:36;101888.80;;;11.00;77.65
44872;BME280;30602;51.060;17.226;2022-09-03T01:20:18;101888.75;;;10.88;78.36
44872;BME280;30602;51.060;17.226;2022-09-03T01:46:36;101885.55;;;10.29;82.46
44872;BME280;30602;51.060;17.226;2022-09-03T01:49:59;101885.90;;;10.30;82.06
44872;BME280;30602;51.060;17.226;2022-09-03T02:00:26;101875.87;;;10.34;81.22
44872;BME280;30602;51.060;17.226;2022-09-03T02:03:56;101875.72;;;10.30;80.81
44872;BME280;30602;51.060;17.226;2022-09-03T02:07:59;101871.59;;;10.23;80.94
44872;BME280;30602;51.060;17.226;2022-09-03T02:11:07;101874.72;;;10.18;81.11
44872;BME280;30602;51.060;17.226;2022-09-03T02:14:36;101882.80;;;10.13;81.35
44872;BME280;30602;51.060;17.226;2022-09-03T02:18:12;101879.12;;;10.03;81.66
44872;BME280;30602;51.060;17.226;2022-09-03T02:25:22;101889.14;;;9.84;80.69
44872;BME280;30602;51.060;17.226;2022-09-03T02:28:52;101883.06;;;9.70;81.09
44872;BME280;30602;51.060;17.226;2022-09-03T02:32:01;101885.54;;;9.54;81.93
44872;BME280;30602;51.060;17.226;2022-09-03T02:35:11;101885.48;;;9.48;82.78
44872;BME280;30602;51.060;17.226;2022-09-03T02:38:24;101890.21;;;9.43;83.28
44872;BME280;30602;51.060;17.226;2022-09-03T02:45:29;101893.09;;;9.29;83.45
44872;BME280;30602;51.060;17.226;2022-09-03T02:49:13;101888.67;;;9.19;83.65
44872;BME280;30602;51.060;17.226;2022-09-03T02:52:54;101889.17;;;9.09;84.36
44872;BME280;30602;51.060;17.226;2022-09-03T02:56:27;101888.60;;;9.06;84.98
44872;BME280;30602;51.060;17.226;2022-09-03T03:00:11;101889.08;;;9.07;84.51
44872;BME280;30602;51.060;17.226;2022-09-03T03:03:38;101889.41;;;9.07;83.82
44872;BME280;30602;51.060;17.226;2022-09-03T03:07:12;101877.95;;;9.10;84.14
44872;BME280;30602;51.060;17.226;2022-09-03T03:10:45;101882.78;;;9.14;84.45
44872;BME280;30602;51.060;17.226;2022-09-03T03:13:57;101883.12;;;9.19;83.80
44872;BME280;30602;51.060;17.226;2022-09-03T03:17:07;101883.48;;;9.34;83.09
44872;BME280;30602;51.060;17.226;2022-09-03T03:20:36;101885.40;;;9.43;82.52
44872;BME280;30602;51.060;17.226;2022-09-03T03:23:56;101890.70;;;9.67;81.04
44872;BME280;30602;51.060;17.226;2022-09-03T03:31:19;101888.90;;;9.83;80.24
44872;BME280;30602;51.060;17.226;2022-09-03T03:34:31;101890.23;;;9.87;79.50
44872;BME280;30602;51.060;17.226;2022-09-03T03:38:10;101888.87;;;9.68;79.93
44872;BME280;30602;51.060;17.226;2022-09-03T03:41:51;101884.91;;;9.74;79.16
44872;BME280;30602;51.060;17.226;2022-09-03T03:45:20;101881.14;;;9.78;79.10
44872;BME280;30602;51.060;17.226;2022-09-03T03:48:31;101886.77;;;9.59;79.89
44872;BME280;30602;51.060;17.226;2022-09-03T03:51:51;101883.65;;;9.59;79.64
44872;BME280;30602;51.060;17.226;2022-09-03T03:55:19;101885.82;;;9.66;79.33
44872;BME280;30602;51.060;17.226;2022-09-03T03:59:18;101887.27;;;9.48;80.48
44872;BME280;30602;51.060;17.226;2022-09-03T04:02:47;101889.83;;;9.48;81.30
44872;BME280;30602;51.060;17.226;2022-09-03T04:10:08;101891.61;;;9.28;82.58
44872;BME280;30602;51.060;17.226;2022-09-03T04:13:36;101886.59;;;9.07;82.95
44872;BME280;30602;51.060;17.226;2022-09-03T04:17:05;101889.75;;;8.94;83.44
44872;BME280;30602;51.060;17.226;2022-09-03T04:20:13;101894.28;;;8.89;84.24
44872;BME280;30602;51.060;17.226;2022-09-03T04:23:55;101892.89;;;8.80;85.13
44872;BME280;30602;51.060;17.226;2022-09-03T04:27:28;101896.95;;;8.86;85.18
44872;BME280;30602;51.060;17.226;2022-09-03T04:30:36;101892.62;;;8.88;84.96
44872;BME280;30602;51.060;17.226;2022-09-03T04:34:20;101893.78;;;8.80;84.20
44872;BME280;30602;51.060;17.226;2022-09-03T04:37:31;101895.08;;;8.88;84.28
44872;BME280;30602;51.060;17.226;2022-09-03T04:41:13;101897.03;;;8.94;84.69
44872;BME280;30602;51.060;17.226;2022-09-03T04:44:32;101902.36;;;9.06;84.93
44872;BME280;30602;51.060;17.226;2022-09-03T04:48:03;101907.98;;;9.09;85.38
44872;BME280;30602;51.060;17.226;2022-09-03T04:51:20;101913.21;;;9.18;85.46
44872;BME280;30602;51.060;17.226;2022-09-03T04:54:43;101913.41;;;9.27;85.57
44872;BME280;30602;51.060;17.226;2022-09-03T04:58:14;101919.64;;;9.43;84.86
44872;BME280;30602;51.060;17.226;2022-09-03T05:01:24;101915.48;;;9.56;84.91
44872;BME280;30602;51.060;17.226;2022-09-03T05:05:15;101917.23;;;9.66;84.83
44872;BME280;30602;51.060;17.226;2022-09-03T05:08:50;101915.47;;;9.67;84.56
44872;BME280;30602;51.060;17.226;2022-09-03T05:12:32;101913.55;;;9.70;85.43
44872;BME280;30602;51.060;17.226;2022-09-03T05:16:33;101926.60;;;9.79;85.23
44872;BME280;30602;51.060;17.226;2022-09-03T05:19:43;101933.98;;;9.94;84.95
44872;BME280;30602;51.060;17.226;2022-09-03T05:23:15;101934.69;;;10.05;83.66
44872;BME280;30602;51.060;17.226;2022-09-03T05:26:50;101937.45;;;10.12;84.04
44872;BME280;30602;51.060;17.226;2022-09-03T05:30:34;101930.95;;;10.26;86.37
44872;BME280;30602;51.060;17.226;2022-09-03T05:33:45;101928.41;;;10.34;83.66
44872;BME280;30602;51.060;17.226;2022-09-03T05:37:15;101929.88;;;10.58;84.88
44872;BME280;30602;51.060;17.226;2022-09-03T05:40:24;101913.52;;;10.91;82.77
44872;BME280;30602;51.060;17.226;2022-09-03T05:43:33;101923.66;;;11.31;81.69
44872;BME280;30602;51.060;17.226;2022-09-03T05:46:53;101919.62;;;11.53;81.40
44872;BME280;30602;51.060;17.226;2022-09-03T05:50:21;101920.33;;;11.80;78.77
44872;BME280;30602;51.060;17.226;2022-09-03T05:53:32;101921.20;;;12.09;75.46
44872;BME280;30602;51.060;17.226;2022-09-03T05:57:05;101918.44;;;12.27;73.00
44872;BME280;30602;51.060;17.226;2022-09-03T06:00:32;101915.15;;;12.51;71.90
44872;BME280;30602;51.060;17.226;2022-09-03T06:03:47;101923.20;;;12.66;71.06
44872;BME280;30602;51.060;17.226;2022-09-03T06:07:07;101922.34;;;12.64;72.70
44872;BME280;30602;51.060;17.226;2022-09-03T06:10:37;101922.24;;;12.61;72.03
44872;BME280;30602;51.060;17.226;2022-09-03T06:14:17;101919.93;;;12.78;73.63
44872;BME280;30602;51.060;17.226;2022-09-03T06:17:48;101915.83;;;12.98;69.79
44872;BME280;30602;51.060;17.226;2022-09-03T06:21:19;101915.98;;;13.17;67.89
44872;BME280;30602;51.060;17.226;2022-09-03T06:24:47;101916.71;;;13.36;68.04
44872;BME280;30602;51.060;17.226;2022-09-03T06:27:57;101919.25;;;13.38;67.13
44872;BME280;30602;51.060;17.226;2022-09-03T06:31:26;101920.06;;;13.42;67.71
44872;BME280;30602;51.060;17.226;2022-09-03T06:34:37;101924.25;;;13.59;66.35
44872;BME280;30602;51.060;17.226;2022-09-03T06:38:00;101925.59;;;13.85;66.44
44872;BME280;30602;51.060;17.226;2022-09-03T06:41:43;101932.47;;;13.88;65.56
44872;BME280;30602;51.060;17.226;2022-09-03T06:45:07;101932.92;;;14.00;66.20
44872;BME280;30602;51.060;17.226;2022-09-03T06:48:28;101930.30;;;14.06;66.16
44872;BME280;30602;51.060;17.226;2022-09-03T06:51:50;101934.55;;;14.02;66.94
44872;BME280;30602;51.060;17.226;2022-09-03T06:55:42;101941.03;;;14.18;66.41
44872;BME280;30602;51.060;17.226;2022-09-03T06:59:24;101936.37;;;14.50;64.38
44872;BME280;30602;51.060;17.226;2022-09-03T07:02:47;101938.20;;;14.58;64.15
44872;BME280;30602;51.060;17.226;2022-09-03T07:06:42;101934.77;;;14.85;64.26
44872;BME280;30602;51.060;17.226;2022-09-03T07:10:35;101906.56;;;14.91;63.21
44872;BME280;30602;51.060;17.226;2022-09-03T07:13:47;101926.16;;;15.17;62.16
44872;BME280;30602;51.060;17.226;2022-09-03T07:21:08;101926.99;;;15.40;60.71
44872;BME280;30602;51.060;17.226;2022-09-03T07:24:54;101920.82;;;15.50;61.70
44872;BME280;30602;51.060;17.226;2022-09-03T07:28:16;101914.15;;;15.63;61.68
44872;BME280;30602;51.060;17.226;2022-09-03T07:31:47;101913.77;;;15.80;59.93
44872;BME280;30602;51.060;17.226;2022-09-03T07:35:14;101917.76;;;15.88;58.34
44872;BME280;30602;51.060;17.226;2022-09-03T07:38:47;101917.88;;;16.03;58.08
44872;BME280;30602;51.060;17.226;2022-09-03T07:42:37;101918.32;;;16.15;58.77
44872;BME280;30602;51.060;17.226;2022-09-03T07:46:07;101921.77;;;16.28;58.30
44872;BME280;30602;51.060;17.226;2022-09-03T07:50:00;101922.07;;;16.39;58.45
44872;BME280;30602;51.060;17.226;2022-09-03T07:54:03;101920.78;;;16.66;58.27
44872;BME280;30602;51.060;17.226;2022-09-03T07:57:14;101916.40;;;16.84;58.81
44872;BME280;30602;51.060;17.226;2022-09-03T08:00:51;101915.05;;;16.96;59.28
44872;BME280;30602;51.060;17.226;2022-09-03T08:04:25;101917.52;;;17.05;58.41
44872;BME280;30602;51.060;17.226;2022-09-03T08:08:08;101915.66;;;17.15;57.41
44872;BME280;30602;51.060;17.226;2022-09-03T08:11:39;101916.71;;;17.23;57.32
44872;BME280;30602;51.060;17.226;2022-09-03T08:15:12;101920.70;;;17.37;56.75
44872;BME280;30602;51.060;17.226;2022-09-03T08:18:45;101920.84;;;17.34;56.90
44872;BME280;30602;51.060;17.226;2022-09-03T08:21:55;101909.91;;;17.55;56.83
44872;BME280;30602;51.060;17.226;2022-09-03T08:29:29;101913.55;;;17.39;58.31
44872;BME280;30602;51.060;17.226;2022-09-03T08:33:08;101908.25;;;17.48;57.91
44872;BME280;30602;51.060;17.226;2022-09-03T08:36:29;101902.01;;;17.83;55.90
44872;BME280;30602;51.060;17.226;2022-09-03T08:51:25;101888.25;;;18.41;53.51
44872;BME280;30602;51.060;17.226;2022-09-03T08:55:02;101888.13;;;18.55;54.55
44872;BME280;30602;51.060;17.226;2022-09-03T08:59:05;101890.81;;;18.58;53.80
44872;BME280;30602;51.060;17.226;2022-09-03T09:10:46;101882.33;;;18.80;53.31
44872;BME280;30602;51.060;17.226;2022-09-03T09:14:04;101870.69;;;18.93;53.46
44872;BME280;30602;51.060;17.226;2022-09-03T09:17:53;101873.45;;;19.08;52.32
44872;BME280;30602;51.060;17.226;2022-09-03T09:21:12;101868.28;;;19.18;54.72
44872;BME280;30602;51.060;17.226;2022-09-03T09:25:19;101867.41;;;19.27;52.80
44872;BME280;30602;51.060;17.226;2022-09-03T09:29:08;101872.77;;;19.41;50.26
44872;BME280;30602;51.060;17.226;2022-09-03T09:32:35;101865.57;;;19.50;49.88
44872;BME280;30602;51.060;17.226;2022-09-03T09:36:13;101862.17;;;19.47;49.11
44872;BME280;30602;51.060;17.226;2022-09-03T09:43:20;101848.63;;;19.62;48.55
44872;BME280;30602;51.060;17.226;2022-09-03T09:50:40;101842.45;;;19.52;50.30
44872;BME280;30602;51.060;17.226;2022-09-03T09:54:17;101842.09;;;19.50;50.21
44872;BME280;30602;51.060;17.226;2022-09-03T09:57:28;101846.38;;;19.62;48.72
44872;BME280;30602;51.060;17.226;2022-09-03T10:01:02;101841.59;;;19.65;48.72
44872;BME280;30602;51.060;17.226;2022-09-03T10:04:45;101841.84;;;19.77;49.69
44872;BME280;30602;51.060;17.226;2022-09-03T10:08:19;101842.44;;;19.98;50.77
44872;BME280;30602;51.060;17.226;2022-09-03T10:11:32;101838.88;;;19.93;48.49
44872;BME280;30602;51.060;17.226;2022-09-03T10:18:45;101827.45;;;20.01;49.28
44872;BME280;30602;51.060;17.226;2022-09-03T10:22:09;101822.04;;;20.02;49.01
44872;BME280;30602;51.060;17.226;2022-09-03T10:29:31;101825.35;;;20.01;49.42
44872;BME280;30602;51.060;17.226;2022-09-03T10:32:56;101827.28;;;20.19;48.71
44872;BME280;30602;51.060;17.226;2022-09-03T10:51:53;101818.37;;;19.58;50.47
44872;BME280;30602;51.060;17.226;2022-09-03T10:58:53;101809.91;;;19.63;47.96
44872;BME280;30602;51.060;17.226;2022-09-03T11:12:35;101799.44;;;20.35;50.14
44872;BME280;30602;51.060;17.226;2022-09-03T11:16:47;101794.21;;;20.50;48.02
44872;BME280;30602;51.060;17.226;2022-09-03T11:23:44;101779.12;;;20.71;47.37
44872;BME280;30602;51.060;17.226;2022-09-03T11:34:32;101779.41;;;20.42;49.41
44872;BME280;30602;51.060;17.226;2022-09-03T11:41:14;101772.46;;;20.25;48.57
44872;BME280;30602;51.060;17.226;2022-09-03T11:44:37;101762.73;;;20.52;49.33
44872;BME280;30602;51.060;17.226;2022-09-03T11:51:33;101766.15;;;20.15;49.46
44872;BME280;30602;51.060;17.226;2022-09-03T11:54:58;101761.56;;;20.35;49.79
44872;BME280;30602;51.060;17.226;2022-09-03T11:58:34;101767.06;;;20.34;47.77
44872;BME280;30602;51.060;17.226;2022-09-03T12:08:35;101770.22;;;20.07;48.47
44872;BME280;30602;51.060;17.226;2022-09-03T12:12:03;101767.13;;;20.01;48.30
44872;BME280;30602;51.060;17.226;2022-09-03T12:22:41;101745.55;;;20.31;47.60
44872;BME280;30602;51.060;17.226;2022-09-03T12:26:12;101741.63;;;20.53;47.64
44872;BME280;30602;51.060;17.226;2022-09-03T12:29:26;101742.41;;;20.69;46.50
44872;BME280;30602;51.060;17.226;2022-09-03T12:33:07;101737.59;;;20.90;45.91
44872;BME280;30602;51.060;17.226;2022-09-03T12:36:20;101732.05;;;21.02;46.20
44872;BME280;30602;51.060;17.226;2022-09-03T12:39:55;101730.93;;;20.88;45.75
44872;BME280;30602;51.060;17.226;2022-09-03T12:43:13;101736.66;;;20.72;46.39
44872;BME280;30602;51.060;17.226;2022-09-03T12:46:43;101740.44;;;20.63;46.44
44872;BME280;30602;51.060;17.226;2022-09-03T12:50:03;101740.16;;;20.64;46.95
44872;BME280;30602;51.060;17.226;2022-09-03T12:57:32;101741.69;;;20.43;46.58
44872;BME280;30602;51.060;17.226;2022-09-03T13:01:32;101734.26;;;20.32;46.21
44872;BME280;30602;51.060;17.226;2022-09-03T13:05:02;101731.87;;;20.34;47.17
44872;BME280;30602;51.060;17.226;2022-09-03T13:08:50;101729.36;;;20.33;46.81
44872;BME280;30602;51.060;17.226;2022-09-03T13:12:01;101734.41;;;20.30;47.20
44872;BME280;30602;51.060;17.226;2022-09-03T13:15:20;101736.56;;;20.15;46.23
44872;BME280;30602;51.060;17.226;2022-09-03T13:33:25;101736.62;;;20.15;49.07
44872;BME280;30602;51.060;17.226;2022-09-03T13:37:15;101732.39;;;20.15;49.76
44872;BME280;30602;51.060;17.226;2022-09-03T13:40:53;101730.27;;;20.38;48.06
44872;BME280;30602;51.060;17.226;2022-09-03T13:47:42;101731.86;;;20.59;46.32
44872;BME280;30602;51.060;17.226;2022-09-03T13:51:57;101735.11;;;20.45;46.53
44872;BME280;30602;51.060;17.226;2022-09-03T13:59:05;101733.64;;;20.36;47.13
44872;BME280;30602;51.060;17.226;2022-09-03T14:13:38;101735.09;;;20.49;48.74
44872;BME280;30602;51.060;17.226;2022-09-03T14:17:01;101732.37;;;20.84;48.37
44872;BME280;30602;51.060;17.226;2022-09-03T14:27:54;101732.41;;;20.90;49.89
44872;BME280;30602;51.060;17.226;2022-09-03T14:31:25;101714.75;;;20.86;49.66
44872;BME280;30602;51.060;17.226;2022-09-03T14:38:51;101739.90;;;20.91;50.42
44872;BME280;30602;51.060;17.226;2022-09-03T14:49:40;101723.49;;;20.26;50.90
44872;BME280;30602;51.060;17.226;2022-09-03T15:01:16;101735.75;;;20.04;52.90
44872;BME280;30602;51.060;17.226;2022-09-03T15:12:05;101731.54;;;19.77;53.02
44872;BME280;30602;51.060;17.226;2022-09-03T15:15:23;101730.49;;;19.75;51.88
44872;BME280;30602;51.060;17.226;2022-09-03T15:43:38;101723.23;;;19.63;54.89
44872;BME280;30602;51.060;17.226;2022-09-03T15:46:56;101727.42;;;19.63;54.33
44872;BME280;30602;51.060;17.226;2022-09-03T15:50:34;101732.79;;;19.53;54.72
44872;BME280;30602;51.060;17.226;2022-09-03T15:54:16;101730.82;;;19.45;55.65
44872;BME280;30602;51.060;17.226;2022-09-03T15:57:45;101730.30;;;19.39;54.38
44872;BME280;30602;51.060;17.226;2022-09-03T16:08:30;101732.23;;;19.33;55.02
44872;BME280;30602;51.060;17.226;2022-09-03T16:11:51;101735.27;;;19.33;54.96
44872;BME280;30602;51.060;17.226;2022-09-03T16:15:42;101733.07;;;19.24;55.35
44872;BME280;30602;51.060;17.226;2022-09-03T16:19:51;101733.55;;;19.11;56.20
44872;BME280;30602;51.060;17.226;2022-09-03T16:23:42;101740.66;;;19.00;57.68
44872;BME280;30602;51.060;17.226;2022-09-03T16:45:57;101738.16;;;19.05;55.70
44872;BME280;30602;51.060;17.226;2022-09-03T16:53:15;101736.23;;;18.84;55.85
44872;BME280;30602;51.060;17.226;2022-09-03T17:00:03;101734.37;;;18.70;57.04
44872;BME280;30602;51.060;17.226;2022-09-03T17:10:35;101739.34;;;18.31;60.18
44872;BME280;30602;51.060;17.226;2022-09-03T17:21:25;101737.91;;;17.71;62.26
44872;BME280;30602;51.060;17.226;2022-09-03T17:24:42;101740.62;;;17.40;64.00
44872;BME280;30602;51.060;17.226;2022-09-03T17:31:39;101740.38;;;16.88;66.78
44872;BME280;30602;51.060;17.226;2022-09-03T17:35:47;101741.09;;;16.73;67.01
44872;BME280;30602;51.060;17.226;2022-09-03T17:49:32;101754.79;;;16.02;70.07
44872;BME280;30602;51.060;17.226;2022-09-03T17:52:54;101755.41;;;15.86;70.76
44872;BME280;30602;51.060;17.226;2022-09-03T18:00:25;101756.74;;;15.54;71.78
44872;BME280;30602;51.060;17.226;2022-09-03T18:03:43;101757.03;;;15.52;72.13
44872;BME280;30602;51.060;17.226;2022-09-03T18:07:07;101759.88;;;15.49;72.33
44872;BME280;30602;51.060;17.226;2022-09-03T18:10:24;101761.60;;;15.44;72.85
44872;BME280;30602;51.060;17.226;2022-09-03T18:21:16;101764.91;;;14.95;74.39
44872;BME280;30602;51.060;17.226;2022-09-03T18:28:46;101773.59;;;14.89;75.45
44872;BME280;30602;51.060;17.226;2022-09-03T18:32:34;101783.08;;;14.60;76.67
44872;BME280;30602;51.060;17.226;2022-09-03T18:36:26;101788.73;;;14.19;75.56
44872;BME280;30602;51.060;17.226;2022-09-03T18:39:49;101799.53;;;14.00;77.56
44872;BME280;30602;51.060;17.226;2022-09-03T18:55:00;101820.56;;;13.59;80.72
44872;BME280;30602;51.060;17.226;2022-09-03T19:17:25;101822.44;;;13.08;82.83
44872;BME280;30602;51.060;17.226;2022-09-03T19:25:30;101826.49;;;13.04;83.26
44872;BME280;30602;51.060;17.226;2022-09-03T19:29:30;101829.90;;;12.93;83.32
44872;BME280;30602;51.060;17.226;2022-09-03T19:55:04;101840.81;;;12.37;85.02
44872;BME280;30602;51.060;17.226;2022-09-03T19:58:30;101840.12;;;12.30;84.56
44872;BME280;30602;51.060;17.226;2022-09-03T20:02:13;101842.86;;;12.20;84.78
44872;BME280;30602;51.060;17.226;2022-09-03T20:06:08;101847.05;;;12.10;84.99
44872;BME280;30602;51.060;17.226;2022-09-03T20:09:55;101847.48;;;11.90;82.73
44872;BME280;30602;51.060;17.226;2022-09-03T20:13:39;101850.84;;;11.73;83.52
44872;BME280;30602;51.060;17.226;2022-09-03T20:24:57;101855.04;;;11.63;84.54
44872;BME280;30602;51.060;17.226;2022-09-03T20:33:11;101851.14;;;11.56;85.75
44872;BME280;30602;51.060;17.226;2022-09-03T20:40:18;101852.27;;;11.89;87.93
44872;BME280;30602;51.060;17.226;2022-09-03T20:51:35;101866.95;;;11.53;84.63
44872;BME280;30602;51.060;17.226;2022-09-03T20:55:32;101864.39;;;11.52;85.71
44872;BME280;30602;51.060;17.226;2022-09-03T21:17:39;101875.51;;;11.27;87.90
44872;BME280;30602;51.060;17.226;2022-09-03T21:33:05;101878.50;;;11.31;88.83
44872;BME280;30602;51.060;17.226;2022-09-03T21:36:29;101879.58;;;11.16;88.37
44872;BME280;30602;51.060;17.226;2022-09-03T21:39:55;101885.55;;;11.06;88.55
44872;BME280;30602;51.060;17.226;2022-09-03T21:43:16;101887.35;;;10.97;87.74
44872;BME280;30602;51.060;17.226;2022-09-03T21:46:29;101890.85;;;10.96;87.52
44872;BME280;30602;51.060;17.226;2022-09-03T21:53:09;101887.27;;;10.83;88.03
44872;BME280;30602;51.060;17.226;2022-09-03T21:56:35;101887.04;;;10.88;87.85
44872;BME280;30602;51.060;17.226;2022-09-03T22:00:27;101887.81;;;10.93;89.52
44872;BME280;30602;51.060;17.226;2022-09-03T22:04:24;101891.59;;;11.19;91.37
44872;BME280;30602;51.060;17.226;2022-09-03T22:11:57;101897.83;;;11.26;92.04
44872;BME280;30602;51.060;17.226;2022-09-03T22:15:34;101896.64;;;11.22;92.51
44872;BME280;30602;51.060;17.226;2022-09-03T22:18:53;101899.45;;;11.28;92.68
44872;BME280;30602;51.060;17.226;2022-09-03T22:22:36;101902.59;;;11.38;92.48
44872;BME280;30602;51.060;17.226;2022-09-03T22:25:58;101902.22;;;11.28;92.41
44872;BME280;30602;51.060;17.226;2022-09-03T22:33:02;101898.56;;;11.17;91.86
44872;BME280;30602;51.060;17.226;2022-09-03T22:36:40;101901.37;;;11.03;91.42
44872;BME280;30602;51.060;17.226;2022-09-03T22:54:15;101895.77;;;10.96;91.72
44872;BME280;30602;51.060;17.226;2022-09-03T23:01:38;101890.51;;;11.03;91.92
44872;BME280;30602;51.060;17.226;2022-09-03T23:05:04;101894.36;;;11.03;92.72
44872;BME280;30602;51.060;17.226;2022-09-03T23:08:42;101881.38;;;10.94;92.78
44872;BME280;30602;51.060;17.226;2022-09-03T23:11:59;101885.16;;;11.03;92.98
44872;BME280;30602;51.060;17.226;2022-09-03T23:15:27;101879.56;;;11.09;93.06
44872;BME280;30602;51.060;17.226;2022-09-03T23:18:43;101875.91;;;11.08;93.13
44872;BME280;30602;51.060;17.226;2022-09-03T23:33:17;101881.47;;;11.44;91.42
44872;BME280;30602;51.060;17.226;2022-09-03T23:36:41;101881.15;;;11.36;91.99
44872;BME280;30602;51.060;17.226;2022-09-03T23:40:02;101882.02;;;11.34;92.14
44872;BME280;30602;51.060;17.226;2022-09-03T23:44:06;101878.18;;;11.27;92.03
